createdAt,value
2019-04-07T00:00:37.415Z,29.93
2019-04-07T00:03:41.299Z,31.37
2019-04-07T00:06:45.340Z,28.53
2019-04-07T00:09:49.291Z,29.17
2019-04-07T00:12:53.134Z,28.13
2019-04-07T00:15:57.444Z,26.53
2019-04-07T00:19:01.557Z,24.67
2019-04-07T00:22:05.507Z,26.67
2019-04-07T00:25:09.419Z,29.27
2019-04-07T00:28:13.326Z,26.17
2019-04-07T00:31:17.187Z,28.13
2019-04-07T00:34:22.107Z,23.37
2019-04-07T00:37:26.401Z,21.43
2019-04-07T00:40:30.590Z,24.03
2019-04-07T00:43:35.165Z,25.80
2019-04-07T00:46:39.741Z,22.20
2019-04-07T00:49:43.609Z,24.37
2019-04-07T00:52:47.991Z,20.70
2019-04-07T00:55:51.883Z,20.40
2019-04-07T00:58:55.800Z,24.60
2019-04-07T01:02:00.281Z,22.50
2019-04-07T01:05:04.996Z,21.20
2019-04-07T01:08:08.807Z,19.40
2019-04-07T01:11:12.666Z,20.33
2019-04-07T01:14:16.985Z,20.27
2019-04-07T01:17:21.535Z,19.23
2019-04-07T01:20:25.971Z,22.80
2019-04-07T01:23:29.923Z,20.53
2019-04-07T01:26:33.926Z,21.50
2019-04-07T01:29:37.815Z,20.57
2019-04-07T01:32:42.109Z,19.53
2019-04-07T01:35:48.673Z,20.13
2019-04-07T01:38:52.068Z,19.67
2019-04-07T01:42:00.537Z,21.50
2019-04-07T01:45:18.471Z,22.37
2019-04-07T01:48:26.893Z,19.77
2019-04-07T01:51:48.796Z,16.90
2019-04-07T01:55:10.479Z,18.53
2019-04-07T01:58:30.754Z,17.17
2019-04-07T02:01:45.142Z,15.33
2019-04-07T02:05:05.621Z,15.80
2019-04-07T02:08:20.094Z,15.87
2019-04-07T02:11:43.994Z,16.07
2019-04-07T02:14:58.384Z,17.57
2019-04-07T02:18:12.379Z,16.70
2019-04-07T02:21:18.369Z,18.73
2019-04-07T02:24:39.938Z,16.73
2019-04-07T02:27:57.258Z,17.67
2019-04-07T02:31:02.751Z,19.07
2019-04-07T02:34:08.129Z,19.97
2019-04-07T02:37:25.052Z,18.30
2019-04-07T02:40:36.074Z,17.07
2019-04-07T02:43:44.573Z,15.60
2019-04-07T02:46:53.424Z,16.63
2019-04-07T02:50:04.721Z,18.03
2019-04-07T02:53:11.069Z,20.77
2019-04-07T02:56:29.315Z,30.10
2019-04-07T02:59:53.462Z,28.43
2019-04-07T03:03:10.886Z,28.40
2019-04-07T03:06:37.605Z,25.83
2019-04-07T03:09:29.980Z,32.40
2019-04-07T03:12:35.471Z,30.57
2019-04-07T03:15:40.974Z,34.20
2019-04-07T03:19:04.475Z,33.87
2019-04-07T03:22:16.377Z,34.27
2019-04-07T03:25:21.784Z,34.43
2019-04-07T03:28:27.302Z,31.53
2019-04-07T03:31:33.047Z,31.40
2019-04-07T03:34:56.295Z,30.27
2019-04-07T03:38:18.975Z,28.00
2019-04-07T03:41:24.516Z,29.23
2019-04-07T03:44:38.724Z,27.10
2019-04-07T03:47:53.084Z,27.90
2019-04-07T03:50:59.988Z,27.37
2019-04-07T03:54:22.773Z,27.70
2019-04-07T03:57:46.363Z,29.10
2019-04-07T04:01:13.774Z,32.80
2019-04-07T04:04:24.713Z,26.43
2019-04-07T04:07:36.517Z,31.00
2019-04-07T04:10:45.564Z,27.43
2019-04-07T04:13:51.080Z,28.07
2019-04-07T04:16:55.029Z,25.03
2019-04-07T04:19:58.935Z,25.57
2019-04-07T04:23:03.827Z,22.27
2019-04-07T04:26:08.314Z,21.70
2019-04-07T04:29:12.330Z,22.90
2019-04-07T04:32:16.679Z,22.20
2019-04-07T04:35:20.536Z,23.60
2019-04-07T04:38:24.406Z,23.13
2019-04-07T04:41:28.234Z,24.23
2019-04-07T04:44:32.095Z,25.67
2019-04-07T04:47:35.916Z,20.70
2019-04-07T04:50:39.921Z,22.57
2019-04-07T04:53:44.270Z,25.53
2019-04-07T04:56:48.297Z,19.60
2019-04-07T04:59:53.942Z,19.20
2019-04-07T05:02:58.161Z,17.83
2019-04-07T05:06:02.388Z,18.57
2019-04-07T05:09:07.932Z,17.43
2019-04-07T05:12:11.761Z,17.73
2019-04-07T05:15:15.227Z,16.93
2019-04-07T05:18:19.076Z,16.83
2019-04-07T05:21:22.999Z,17.50
2019-04-07T05:24:26.840Z,18.77
2019-04-07T05:27:30.738Z,16.17
2019-04-07T05:30:34.699Z,15.30
2019-04-07T05:33:38.543Z,14.93
2019-04-07T05:36:42.367Z,15.23
2019-04-07T05:39:46.338Z,16.83
2019-04-07T05:42:50.832Z,15.43
2019-04-07T05:45:55.463Z,16.60
2019-04-07T05:49:00.455Z,13.70
2019-04-07T05:52:05.677Z,20.23
2019-04-07T05:55:09.824Z,13.60
2019-04-07T05:58:15.443Z,15.63
2019-04-07T06:01:22.332Z,14.03
2019-04-07T06:04:24.909Z,17.23
2019-04-07T06:07:31.248Z,15.67
2019-04-07T06:10:34.888Z,17.07
2019-04-07T06:13:39.086Z,16.73
2019-04-07T06:16:43.532Z,33.57
2019-04-07T06:19:47.411Z,39.80
2019-04-07T06:22:53.623Z,27.37
2019-04-07T06:25:58.962Z,37.57
2019-04-07T06:29:02.645Z,35.33
2019-04-07T06:32:09.753Z,41.13
2019-04-07T06:35:13.917Z,45.80
2019-04-07T06:38:17.808Z,47.83
2019-04-07T06:41:21.782Z,53.50
2019-04-07T06:44:26.010Z,52.73
2019-04-07T06:47:32.870Z,50.60
2019-04-07T06:50:49.911Z,49.37
2019-04-07T06:53:54.284Z,65.00
2019-04-07T06:57:18.512Z,52.00
2019-04-07T07:00:30.041Z,60.20
2019-04-07T07:03:52.985Z,52.90
2019-04-07T07:07:16.778Z,48.63
2019-04-07T07:10:29.006Z,54.77
2019-04-07T07:13:34.787Z,55.43
2019-04-07T07:16:42.681Z,54.73
2019-04-07T07:20:01.329Z,51.30
2019-04-07T07:23:07.613Z,48.70
2019-04-07T07:26:11.632Z,52.83
2019-04-07T07:29:16.446Z,51.47
2019-04-07T07:32:20.625Z,51.87
2019-04-07T07:35:24.541Z,45.73
2019-04-07T07:38:31.074Z,46.43
2019-04-07T07:41:34.476Z,45.63
2019-04-07T07:44:39.674Z,47.20
2019-04-07T07:47:43.808Z,45.10
2019-04-07T07:50:47.849Z,37.77
2019-04-07T07:53:52.640Z,40.83
2019-04-07T07:56:56.884Z,45.93
2019-04-07T08:00:04.546Z,46.33
2019-04-07T08:03:06.874Z,46.47
2019-04-07T08:06:10.851Z,45.33
2019-04-07T08:09:16.453Z,46.10
2019-04-07T08:12:20.629Z,40.37
2019-04-07T08:15:29.666Z,42.33
2019-04-07T08:18:29.641Z,44.93
2019-04-07T08:21:33.752Z,49.10
2019-04-07T08:24:37.642Z,42.20
2019-04-07T08:27:41.969Z,41.57
2019-04-07T08:30:47.540Z,44.60
2019-04-07T08:33:52.683Z,43.67
2019-04-07T08:36:57.384Z,43.43
2019-04-07T08:40:04.403Z,45.67
2019-04-07T08:43:07.206Z,42.40
2019-04-07T08:46:11.023Z,41.47
2019-04-07T08:49:14.927Z,41.73
2019-04-07T08:52:19.468Z,39.90
2019-04-07T08:55:23.639Z,48.73
2019-04-07T08:58:29.852Z,42.50
2019-04-07T09:01:33.144Z,47.77
2019-04-07T09:04:36.796Z,45.47
2019-04-07T09:07:40.276Z,49.30
2019-04-07T09:10:51.113Z,43.00
2019-04-07T09:13:55.841Z,46.80
2019-04-07T09:17:06.851Z,41.67
2019-04-07T09:20:26.898Z,45.90
2019-04-07T09:23:35.441Z,45.37
2019-04-07T09:26:42.832Z,47.90
2019-04-07T09:29:58.254Z,45.97
2019-04-07T09:33:21.551Z,44.77
2019-04-07T09:36:32.367Z,43.20
2019-04-07T09:39:59.172Z,39.30
2019-04-07T09:43:17.989Z,43.53
2019-04-07T09:46:26.416Z,41.40
2019-04-07T09:49:49.602Z,44.27
2019-04-07T09:53:00.848Z,36.90
2019-04-07T09:56:21.658Z,36.40
2019-04-07T09:59:32.816Z,34.73
2019-04-07T10:02:56.105Z,31.63
2019-04-07T10:06:10.710Z,33.30
2019-04-07T10:09:32.452Z,28.03
2019-04-07T10:12:37.557Z,27.90
2019-04-07T10:15:43.177Z,28.87
2019-04-07T10:18:55.089Z,28.63
2019-04-07T10:22:03.575Z,25.10
2019-04-07T10:25:11.988Z,25.37
2019-04-07T10:28:23.398Z,28.97
2019-04-07T10:31:28.487Z,30.63
2019-04-07T10:34:39.137Z,29.83
2019-04-07T10:37:56.865Z,25.57
2019-04-07T10:41:10.778Z,29.73
2019-04-07T10:44:32.401Z,33.27
2019-04-07T10:47:43.666Z,31.17
2019-04-07T10:51:05.618Z,32.70
2019-04-07T10:54:16.242Z,29.27
2019-04-07T10:57:36.726Z,32.80
2019-04-07T11:00:58.651Z,33.70
2019-04-07T11:04:12.789Z,40.90
2019-04-07T11:07:32.830Z,32.23
2019-04-07T11:10:50.715Z,35.73
2019-04-07T11:13:55.908Z,39.17
2019-04-07T11:17:06.617Z,37.17
2019-04-07T11:20:20.601Z,37.23
2019-04-07T11:23:41.861Z,35.17
2019-04-07T11:26:59.414Z,32.93
2019-04-07T11:30:08.068Z,30.27
2019-04-07T11:33:13.426Z,31.83
2019-04-07T11:36:27.234Z,32.73
2019-04-07T11:39:35.203Z,33.07
2019-04-07T11:42:40.446Z,34.27
2019-04-07T11:46:03.574Z,30.37
2019-04-07T11:49:13.091Z,34.93
2019-04-07T11:52:20.634Z,32.97
2019-04-07T11:55:30.080Z,35.23
2019-04-07T11:58:50.403Z,30.47
2019-04-07T12:01:58.621Z,32.17
2019-04-07T12:05:04.364Z,44.70
2019-04-07T12:08:16.126Z,52.60
2019-04-07T12:11:26.816Z,51.93
2019-04-07T12:14:32.013Z,52.57
2019-04-07T12:17:42.033Z,52.83
2019-04-07T12:20:50.747Z,50.23
2019-04-07T12:24:09.507Z,43.87
2019-04-07T12:27:15.151Z,44.23
2019-04-07T12:30:23.366Z,38.83
2019-04-07T12:33:31.204Z,43.13
2019-04-07T12:36:39.777Z,40.77
2019-04-07T12:39:52.003Z,38.00
2019-04-07T12:43:03.531Z,37.40
2019-04-07T12:46:09.007Z,38.57
2019-04-07T12:49:19.724Z,38.43
2019-04-07T12:52:28.049Z,38.40
2019-04-07T12:55:45.555Z,39.00
2019-04-07T12:58:53.354Z,42.03
2019-04-07T13:02:05.587Z,38.70
2019-04-07T13:05:24.289Z,38.10
2019-04-07T13:08:32.303Z,39.17
2019-04-07T13:11:45.318Z,36.93
2019-04-07T13:14:47.543Z,38.73
2019-04-07T13:18:09.667Z,39.43
2019-04-07T13:21:14.537Z,37.97
2019-04-07T13:24:35.615Z,65.97
2019-04-07T13:27:41.534Z,35.03
2019-04-07T13:30:53.028Z,34.27
2019-04-07T13:34:01.217Z,33.30
2019-04-07T13:37:08.047Z,42.70
2019-04-07T13:40:14.301Z,31.47
2019-04-07T13:43:36.310Z,34.07
2019-04-07T13:46:51.051Z,36.43
2019-04-07T13:50:02.101Z,35.77
2019-04-07T13:53:25.024Z,38.13
2019-04-07T13:56:48.128Z,39.10
2019-04-07T13:59:58.179Z,36.23
2019-04-07T14:03:04.772Z,34.33
2019-04-07T14:06:16.412Z,37.77
2019-04-07T14:09:24.728Z,33.80
2019-04-07T14:12:33.728Z,31.60
2019-04-07T14:15:46.212Z,33.00
2019-04-07T14:18:54.572Z,30.93
2019-04-07T14:22:00.017Z,31.93
2019-04-07T14:25:24.617Z,30.33
2019-04-07T14:28:39.008Z,26.33
2019-04-07T14:31:47.976Z,27.80
2019-04-07T14:34:59.238Z,32.47
2019-04-07T14:38:13.600Z,28.83
2019-04-07T14:41:19.497Z,26.33
2019-04-07T14:44:24.714Z,27.43
2019-04-07T14:47:38.483Z,27.97
2019-04-07T14:50:43.576Z,32.17
2019-04-07T14:54:05.023Z,31.77
2019-04-07T14:57:12.838Z,30.10
2019-04-07T15:00:34.784Z,31.27
2019-04-07T15:03:40.703Z,34.47
2019-04-07T15:06:45.987Z,31.83
2019-04-07T15:09:54.557Z,29.47
2019-04-07T15:12:59.994Z,29.00
2019-04-07T15:16:03.583Z,29.53
2019-04-07T15:19:07.066Z,26.07
2019-04-07T15:22:10.602Z,27.20
2019-04-07T15:25:14.196Z,29.60
2019-04-07T15:49:34.364Z,28.27
2019-04-07T15:52:42.153Z,25.60
2019-04-07T15:55:50.973Z,24.73
2019-04-07T15:58:49.535Z,24.30
2019-04-07T16:01:55.400Z,24.03
2019-04-07T16:05:02.399Z,21.73
2019-04-07T16:08:04.246Z,18.87
2019-04-07T16:11:08.042Z,25.13
2019-04-07T16:14:13.595Z,22.83
2019-04-07T16:17:16.958Z,22.60
2019-04-07T16:20:24.767Z,24.23
2019-04-07T16:23:26.216Z,21.77
2019-04-07T16:26:31.113Z,20.53
2019-04-07T16:29:35.108Z,20.90
2019-04-07T16:32:39.163Z,19.97
2019-04-07T16:35:44.014Z,18.37
2019-04-07T16:38:47.948Z,23.63
2019-04-07T16:41:51.473Z,19.67
2019-04-07T16:44:55.106Z,23.57
2019-04-07T16:47:58.838Z,22.27
2019-04-07T16:51:03.373Z,23.13
2019-04-07T16:54:08.672Z,25.37
2019-04-07T16:57:12.949Z,23.13
2019-04-07T17:00:16.715Z,26.47
2019-04-07T17:03:20.485Z,23.73
2019-04-07T17:06:25.089Z,21.70
2019-04-07T17:09:29.361Z,22.93
2019-04-07T17:12:34.020Z,21.93
2019-04-07T17:15:40.262Z,24.53
2019-04-07T17:18:43.270Z,23.53
2019-04-07T17:21:47.038Z,24.20
2019-04-07T17:24:51.891Z,26.97
2019-04-07T17:27:58.655Z,27.63
2019-04-07T17:31:01.401Z,28.90
2019-04-07T17:34:09.529Z,27.93
2019-04-07T17:37:10.741Z,28.70
2019-04-07T17:40:16.027Z,31.87
2019-04-07T17:43:44.729Z,33.60
2019-04-07T17:46:58.686Z,34.43
2019-04-07T17:50:12.731Z,30.87
2019-04-07T17:53:29.773Z,33.33
2019-04-07T17:56:38.176Z,38.63
2019-04-07T17:59:46.623Z,36.47
2019-04-07T18:02:57.188Z,41.37
2019-04-07T18:06:15.726Z,52.60
2019-04-07T18:09:31.558Z,64.77
2019-04-07T18:12:47.863Z,56.53
2019-04-07T18:16:06.708Z,55.40
2019-04-07T18:19:28.860Z,45.43
2019-04-07T18:22:51.703Z,41.87
2019-04-07T18:25:55.658Z,54.73
2019-04-07T18:29:07.002Z,170.50
2019-04-07T18:32:27.460Z,186.63
2019-04-07T18:35:33.133Z,180.20
2019-04-07T18:38:42.700Z,128.53
2019-04-07T18:41:51.637Z,194.67
2019-04-07T18:45:13.792Z,166.37
2019-04-07T18:48:36.046Z,170.80
2019-04-07T18:51:56.925Z,121.83
2019-04-07T18:55:06.705Z,120.03
2019-04-07T18:58:29.815Z,116.60
2019-04-07T19:01:38.913Z,102.33
2019-04-07T19:04:47.786Z,93.07
2019-04-07T19:07:53.154Z,95.93
2019-04-07T19:11:14.808Z,85.43
2019-04-07T19:14:44.559Z,102.17
2019-04-07T19:17:48.184Z,98.03
2019-04-07T19:20:59.253Z,96.30
2019-04-07T19:24:09.213Z,107.30
2019-04-07T19:27:31.283Z,103.80
2019-04-07T19:30:45.363Z,175.30
2019-04-07T19:34:06.417Z,175.50
2019-04-07T19:37:15.326Z,151.77
2019-04-07T19:40:20.986Z,119.33
2019-04-07T19:43:39.900Z,102.13
2019-04-07T19:46:44.839Z,101.37
2019-04-07T19:50:02.800Z,95.67
2019-04-07T19:53:16.923Z,127.03
2019-04-07T19:56:22.999Z,135.47
2019-04-07T19:59:39.006Z,119.63
2019-04-07T20:02:41.235Z,108.17
2019-04-07T20:06:02.859Z,161.23
2019-04-07T20:09:17.646Z,147.43
2019-04-07T20:12:22.740Z,133.20
2019-04-07T20:15:29.734Z,116.23
2019-04-07T20:18:49.660Z,92.90
2019-04-07T20:21:56.511Z,80.40
2019-04-07T20:25:17.149Z,75.70
2019-04-07T20:28:20.479Z,103.40
2019-04-07T20:31:41.736Z,135.00
2019-04-07T20:34:55.742Z,135.27
2019-04-07T20:38:03.055Z,103.87
2019-04-07T20:41:23.898Z,113.37
2019-04-07T20:44:33.994Z,127.17
2019-04-07T20:47:41.364Z,126.43
2019-04-07T20:50:47.298Z,113.70
2019-04-07T20:54:02.135Z,112.57
2019-04-07T20:57:05.434Z,108.27
2019-04-07T21:00:12.282Z,106.33
2019-04-07T21:03:33.948Z,103.63
2019-04-07T21:06:47.948Z,108.00
2019-04-07T21:10:05.226Z,107.67
2019-04-07T21:13:08.752Z,117.30
2019-04-07T21:16:25.943Z,123.20
2019-04-07T21:19:35.495Z,129.07
2019-04-07T21:22:43.246Z,121.00
2019-04-07T21:25:54.087Z,127.23
2019-04-07T21:29:00.088Z,131.67
2019-04-07T21:32:15.505Z,139.47
2019-04-07T21:35:21.308Z,140.87
2019-04-07T21:38:39.072Z,129.33
2019-04-07T21:41:59.418Z,123.27
2019-04-07T21:45:06.994Z,125.93
2019-04-07T21:48:13.910Z,135.93
2019-04-07T21:51:19.461Z,144.23
2019-04-07T21:54:24.698Z,152.70
2019-04-07T21:57:29.817Z,164.40
2019-04-07T22:00:43.860Z,169.37
2019-04-07T22:03:54.709Z,154.90
2019-04-07T22:06:59.783Z,154.43
2019-04-07T22:10:07.329Z,153.27
2019-04-07T22:13:12.124Z,139.50
2019-04-07T22:16:16.375Z,140.53
2019-04-07T22:19:20.246Z,146.67
2019-04-07T22:22:25.533Z,126.30
2019-04-07T22:25:30.532Z,156.77
2019-04-07T22:28:34.087Z,128.83
2019-04-07T22:31:46.114Z,130.83
2019-04-07T22:34:50.381Z,132.03
2019-04-07T22:37:54.738Z,147.33
2019-04-07T22:40:58.536Z,141.30
2019-04-07T22:44:02.063Z,133.30
2019-04-07T22:47:05.762Z,147.90
2019-04-07T22:50:09.536Z,138.57
2019-04-07T22:53:13.134Z,128.50
2019-04-07T22:56:16.631Z,124.10
2019-04-07T22:59:20.146Z,118.07
2019-04-07T23:02:24.170Z,113.70
2019-04-07T23:05:27.763Z,107.63
2019-04-07T23:08:31.256Z,133.43
2019-04-07T23:11:35.509Z,118.00
2019-04-07T23:14:40.046Z,115.97
2019-04-07T23:17:43.709Z,126.53
2019-04-07T23:20:47.929Z,138.77
2019-04-07T23:23:51.651Z,134.80
2019-04-07T23:26:55.177Z,144.90
2019-04-07T23:29:59.011Z,204.47
2019-04-07T23:33:04.185Z,228.20
2019-04-07T23:36:07.805Z,150.43
2019-04-07T23:39:11.295Z,166.30
2019-04-07T23:42:15.538Z,147.73
2019-04-07T23:45:19.751Z,106.17
2019-04-07T23:48:24.252Z,223.50
2019-04-07T23:51:28.720Z,127.37
2019-04-07T23:54:33.101Z,117.63
2019-04-07T23:57:36.657Z,521.73
